Barreal, Argentina
Current Conditions -  °F | °C
As of 3:00 PM on Sunday 25 Jan 2015 (Local Time) from SCTB Reporting Station
Clear Clear  
Wind Chill: 88°   Ceiling: Unl
Heat Index: 88°   Visibility: 6mi
Dew Point: 61°   Wind: 8mph
Humidity: 40%   Direction: 190°S
Pressure: 29.91"   Gusts: NA
Location:  31.63°S, 69.47°W
Report Text: SCTB 251800Z 19007KT CAVOK 31/16 Q1013
Loading
Personal Weather Stations






























Interactive Weather Map New forecast layout! Learn more

10-Day Weather Forecast

Advertisements
Track Severe Weather on mobile